Terminal Aerodrome Forecast
Issued by NWS

Home | Current Version | Previous Version | Text Only | Print | Product List | Glossary On
Versions: 1 2 3 4 5 6 7 8 9 10 11 12 13 14 15 16 17 18 19 20 21
000
FTUS41 KILN 062000 AAA
TAFLUK
TAF AMD
KLUK 062023Z 0620/0718 VRB04KT P6SM SCT070
     FM070000 00000KT P6SM FEW120
     FM070700 00000KT 4SM BR FEW120
     FM070900 00000KT 2SM BR FEW120
     FM071200 00000KT P6SM FEW120
     FM071600 17005KT P6SM SCT050=

USA.gov is the U.S. government's official web portal to all federal, state and local government web resources and services.